BAW9273 EGLL-EGCC
Flight info
| Callsign | BAW9273 |
|---|---|
| Flight time | 0h 34m |
| Altitude | 18000 |
| Route | ULTIB T420 ELVOS |
| Aircraft | A320/M-SDE3FGHIRWY/LB1 |
Departure
| Time | 2026-05-05 20:31 |
|---|---|
| Airport | London Heathrow Airport (EGLL) |
Arrival
| Time | 2026-05-05 21:06 |
|---|---|
| Airport | Manchester Airport (EGCC) |
| Time | Latitude | Longitude | Altitude | Speed | Heading |
|---|---|---|---|---|---|
| 2026-05-05 20:01 | 51.47412 | -0.48952 | 91 ft | 0 kts | 187° |
| 2026-05-05 20:20 | 51.47415 | -0.48952 | 88 ft | 2 kts | 188° |
| 2026-05-05 20:20 | 51.47433 | -0.48948 | 91 ft | 0 kts | 188° |
| 2026-05-05 20:22 | 51.47435 | -0.48947 | 88 ft | 2 kts | 188° |
| 2026-05-05 20:22 | 51.47451 | -0.48943 | 90 ft | 2 kts | 188° |
| 2026-05-05 20:23 | 51.47468 | -0.48939 | 89 ft | 2 kts | 188° |
| 2026-05-05 20:23 | 51.47484 | -0.48936 | 89 ft | 2 kts | 186° |
| 2026-05-05 20:23 | 51.47501 | -0.48934 | 91 ft | 2 kts | 165° |
| 2026-05-05 20:23 | 51.47509 | -0.48940 | 89 ft | 0 kts | 124° |
| 2026-05-05 20:25 | 51.47508 | -0.48937 | 90 ft | 0 kts | 124° |
| 2026-05-05 20:26 | 51.47503 | -0.48927 | 92 ft | 2 kts | 125° |
| 2026-05-05 20:26 | 51.47488 | -0.48885 | 91 ft | 7 kts | 115° |
| 2026-05-05 20:27 | 51.47482 | -0.48779 | 90 ft | 12 kts | 89° |
| 2026-05-05 20:27 | 51.47486 | -0.48626 | 92 ft | 15 kts | 89° |
| 2026-05-05 20:27 | 51.47451 | -0.48481 | 89 ft | 17 kts | 169° |
| 2026-05-05 20:27 | 51.47316 | -0.48474 | 86 ft | 22 kts | 178° |
| 2026-05-05 20:28 | 51.47167 | -0.48473 | 88 ft | 20 kts | 178° |
| 2026-05-05 20:28 | 51.47033 | -0.48472 | 90 ft | 18 kts | 180° |
| 2026-05-05 20:28 | 51.46910 | -0.48468 | 91 ft | 17 kts | 179° |
| 2026-05-05 20:28 | 51.46802 | -0.48471 | 89 ft | 15 kts | 180° |
| 2026-05-05 20:29 | 51.46704 | -0.48467 | 88 ft | 13 kts | 179° |
| 2026-05-05 20:29 | 51.46638 | -0.48467 | 89 ft | 8 kts | 180° |
| 2026-05-05 20:29 | 51.46590 | -0.48469 | 89 ft | 6 kts | 181° |
| 2026-05-05 20:29 | 51.46549 | -0.48469 | 89 ft | 7 kts | 178° |
| 2026-05-05 20:30 | 51.46481 | -0.48459 | 89 ft | 9 kts | 154° |
| 2026-05-05 20:30 | 51.46476 | -0.48409 | 87 ft | 0 kts | 84° |
| 2026-05-05 20:30 | 51.46476 | -0.48400 | 87 ft | 6 kts | 84° |
| 2026-05-05 20:31 | 51.46481 | -0.48030 | 84 ft | 70 kts | 89° |
| 2026-05-05 20:31 | 51.46482 | -0.46894 | 87 ft | 130 kts | 89° |
| 2026-05-05 20:31 | 51.46476 | -0.45223 | 288 ft | 158 kts | 88° |
| 2026-05-05 20:31 | 51.46481 | -0.43459 | 935 ft | 159 kts | 87° |
| 2026-05-05 20:32 | 51.46539 | -0.41685 | 1622 ft | 160 kts | 76° |
| 2026-05-05 20:32 | 51.47074 | -0.40176 | 2273 ft | 152 kts | 46° |
| 2026-05-05 20:32 | 51.47797 | -0.39057 | 2828 ft | 148 kts | 44° |
| 2026-05-05 20:32 | 51.48532 | -0.37916 | 3502 ft | 145 kts | 44° |
| 2026-05-05 20:33 | 51.49280 | -0.36731 | 3901 ft | 158 kts | 44° |
| 2026-05-05 20:33 | 51.50250 | -0.35787 | 4222 ft | 174 kts | 13° |
| 2026-05-05 20:33 | 51.51505 | -0.35874 | 4594 ft | 192 kts | 338° |
| 2026-05-05 20:33 | 51.52597 | -0.37227 | 5051 ft | 208 kts | 317° |
| 2026-05-05 20:34 | 51.53742 | -0.38770 | 5549 ft | 221 kts | 325° |
| 2026-05-05 20:34 | 51.55007 | -0.40222 | 6275 ft | 225 kts | 326° |
| 2026-05-05 20:34 | 51.56299 | -0.41663 | 7033 ft | 227 kts | 326° |
| 2026-05-05 20:34 | 51.57602 | -0.43130 | 7784 ft | 230 kts | 326° |
| 2026-05-05 20:35 | 51.58909 | -0.44625 | 8557 ft | 232 kts | 325° |
| 2026-05-05 20:35 | 51.60224 | -0.46147 | 9343 ft | 234 kts | 324° |
| 2026-05-05 20:35 | 51.61551 | -0.47700 | 10104 ft | 237 kts | 324° |
| 2026-05-05 20:35 | 51.62889 | -0.49275 | 10803 ft | 240 kts | 324° |
| 2026-05-05 20:36 | 51.64243 | -0.50876 | 11504 ft | 243 kts | 323° |
| 2026-05-05 20:36 | 51.65612 | -0.52502 | 12210 ft | 246 kts | 323° |
| 2026-05-05 20:36 | 51.67011 | -0.54166 | 12769 ft | 257 kts | 323° |
| 2026-05-05 20:36 | 51.68495 | -0.55935 | 13161 ft | 274 kts | 323° |
| 2026-05-05 20:37 | 51.70073 | -0.57816 | 13548 ft | 290 kts | 323° |
| 2026-05-05 20:37 | 51.71725 | -0.59787 | 14051 ft | 299 kts | 322° |
| 2026-05-05 20:37 | 51.73409 | -0.61797 | 14699 ft | 303 kts | 322° |
| 2026-05-05 20:37 | 51.75107 | -0.63828 | 15343 ft | 306 kts | 322° |
| 2026-05-05 20:38 | 51.76830 | -0.65891 | 15982 ft | 310 kts | 322° |
| 2026-05-05 20:38 | 51.78571 | -0.67980 | 16606 ft | 314 kts | 322° |
| 2026-05-05 20:38 | 51.80335 | -0.70098 | 17218 ft | 318 kts | 322° |
| 2026-05-05 20:38 | 51.82125 | -0.72247 | 17804 ft | 323 kts | 322° |
| 2026-05-05 20:39 | 51.83933 | -0.74422 | 17959 ft | 325 kts | 322° |
| 2026-05-05 20:39 | 51.85744 | -0.76605 | 17991 ft | 325 kts | 322° |
| 2026-05-05 20:39 | 51.87552 | -0.78785 | 17988 ft | 325 kts | 322° |
| 2026-05-05 20:39 | 51.89365 | -0.80970 | 17989 ft | 324 kts | 322° |
| 2026-05-05 20:40 | 51.91174 | -0.83146 | 17988 ft | 324 kts | 322° |
| 2026-05-05 20:40 | 51.92986 | -0.85329 | 17988 ft | 325 kts | 322° |
| 2026-05-05 20:40 | 51.94795 | -0.87517 | 17990 ft | 324 kts | 321° |
| 2026-05-05 20:40 | 51.96602 | -0.89713 | 17992 ft | 325 kts | 321° |
| 2026-05-05 20:41 | 51.98409 | -0.91910 | 17995 ft | 324 kts | 322° |
| 2026-05-05 20:41 | 52.00213 | -0.94099 | 17994 ft | 324 kts | 321° |
| 2026-05-05 20:41 | 52.02016 | -0.96290 | 17995 ft | 324 kts | 321° |
| 2026-05-05 20:41 | 52.03820 | -0.98487 | 18007 ft | 324 kts | 321° |
| 2026-05-05 20:42 | 52.05623 | -1.00679 | 18010 ft | 324 kts | 321° |
| 2026-05-05 20:42 | 52.07425 | -1.02872 | 18012 ft | 324 kts | 321° |
| 2026-05-05 20:42 | 52.09227 | -1.05068 | 18016 ft | 323 kts | 321° |
| 2026-05-05 20:42 | 52.11025 | -1.07263 | 18016 ft | 323 kts | 321° |
| 2026-05-05 20:43 | 52.12822 | -1.09465 | 18022 ft | 323 kts | 321° |
| 2026-05-05 20:43 | 52.14616 | -1.11664 | 18022 ft | 323 kts | 321° |
| 2026-05-05 20:43 | 52.16410 | -1.13863 | 18022 ft | 323 kts | 321° |
| 2026-05-05 20:43 | 52.18205 | -1.16061 | 18027 ft | 322 kts | 321° |
| 2026-05-05 20:44 | 52.19998 | -1.18258 | 18026 ft | 322 kts | 321° |
| 2026-05-05 20:44 | 52.21785 | -1.20456 | 18030 ft | 322 kts | 321° |
| 2026-05-05 20:44 | 52.23571 | -1.22658 | 18029 ft | 322 kts | 321° |
| 2026-05-05 20:44 | 52.25333 | -1.24830 | 18030 ft | 321 kts | 321° |
| 2026-05-05 20:45 | 52.29039 | -1.29410 | 18034 ft | 356 kts | 321° |
| 2026-05-05 20:45 | 52.31071 | -1.31923 | 18028 ft | 375 kts | 321° |
| 2026-05-05 20:45 | 52.33144 | -1.34478 | 18025 ft | 360 kts | 321° |
| 2026-05-05 20:46 | 52.35094 | -1.36882 | 18022 ft | 342 kts | 321° |
| 2026-05-05 20:46 | 52.36922 | -1.39141 | 18027 ft | 327 kts | 321° |
| 2026-05-05 20:46 | 52.38719 | -1.41364 | 18021 ft | 311 kts | 321° |
| 2026-05-05 20:46 | 52.40375 | -1.43423 | 18024 ft | 296 kts | 321° |
| 2026-05-05 20:47 | 52.41975 | -1.45410 | 18027 ft | 281 kts | 321° |
| 2026-05-05 20:47 | 52.43499 | -1.47304 | 18026 ft | 272 kts | 321° |
| 2026-05-05 20:47 | 52.45003 | -1.49177 | 18025 ft | 272 kts | 320° |
| 2026-05-05 20:47 | 52.46506 | -1.51057 | 18027 ft | 272 kts | 320° |
| 2026-05-05 20:48 | 52.48006 | -1.52937 | 18029 ft | 271 kts | 320° |
| 2026-05-05 20:48 | 52.49507 | -1.54818 | 18026 ft | 271 kts | 320° |
| 2026-05-05 20:48 | 52.51007 | -1.56700 | 18026 ft | 271 kts | 320° |
| 2026-05-05 20:48 | 52.52509 | -1.58582 | 18025 ft | 272 kts | 320° |
| 2026-05-05 20:49 | 52.54010 | -1.60462 | 18028 ft | 271 kts | 321° |
| 2026-05-05 20:49 | 52.55510 | -1.62337 | 18029 ft | 271 kts | 321° |
| 2026-05-05 20:49 | 52.57012 | -1.64216 | 18027 ft | 271 kts | 321° |
| 2026-05-05 20:49 | 52.58514 | -1.66096 | 18027 ft | 271 kts | 320° |
| 2026-05-05 20:50 | 52.60036 | -1.68005 | 18032 ft | 286 kts | 320° |
| 2026-05-05 20:50 | 52.61686 | -1.70090 | 18027 ft | 312 kts | 320° |
| 2026-05-05 20:50 | 52.63471 | -1.72354 | 18026 ft | 336 kts | 321° |
| 2026-05-05 20:50 | 52.65386 | -1.74776 | 18028 ft | 358 kts | 321° |
| 2026-05-05 20:51 | 52.67422 | -1.77345 | 18031 ft | 379 kts | 321° |
| 2026-05-05 20:51 | 52.69572 | -1.80059 | 18030 ft | 399 kts | 321° |
| 2026-05-05 20:51 | 52.71798 | -1.82873 | 18030 ft | 405 kts | 321° |
| 2026-05-05 20:51 | 52.74023 | -1.85681 | 17994 ft | 396 kts | 321° |
| 2026-05-05 20:52 | 52.76184 | -1.88416 | 17489 ft | 389 kts | 321° |
| 2026-05-05 20:52 | 52.78301 | -1.91102 | 16985 ft | 374 kts | 321° |
| 2026-05-05 20:52 | 52.80311 | -1.93655 | 16490 ft | 355 kts | 321° |
| 2026-05-05 20:52 | 52.82225 | -1.96089 | 16013 ft | 339 kts | 321° |
| 2026-05-05 20:53 | 52.84057 | -1.98421 | 15534 ft | 326 kts | 321° |
| 2026-05-05 20:53 | 52.85817 | -2.00667 | 15066 ft | 314 kts | 321° |
| 2026-05-05 20:53 | 52.87513 | -2.02835 | 14603 ft | 303 kts | 321° |
| 2026-05-05 20:53 | 52.89158 | -2.04936 | 14177 ft | 293 kts | 321° |
| 2026-05-05 20:54 | 52.90740 | -2.06959 | 13751 ft | 284 kts | 322° |
| 2026-05-05 20:54 | 52.92286 | -2.08939 | 13220 ft | 278 kts | 322° |
| 2026-05-05 20:54 | 52.93797 | -2.10872 | 12692 ft | 272 kts | 322° |
| 2026-05-05 20:54 | 52.95281 | -2.12776 | 12173 ft | 267 kts | 322° |
| 2026-05-05 20:55 | 52.96737 | -2.14647 | 11668 ft | 262 kts | 322° |
| 2026-05-05 20:55 | 52.98159 | -2.16477 | 11194 ft | 256 kts | 322° |
| 2026-05-05 20:55 | 52.99554 | -2.18271 | 10725 ft | 251 kts | 322° |
| 2026-05-05 20:55 | 53.00928 | -2.20043 | 10263 ft | 249 kts | 322° |
| 2026-05-05 20:56 | 53.02019 | -2.21453 | 9893 ft | 247 kts | 322° |
| 2026-05-05 20:56 | 53.02106 | -2.21565 | 9853 ft | 247 kts | 322° |
| 2026-05-05 20:56 | 53.03456 | -2.23311 | 9351 ft | 245 kts | 322° |
| 2026-05-05 20:56 | 53.04799 | -2.25047 | 8828 ft | 244 kts | 322° |
| 2026-05-05 20:57 | 53.06132 | -2.26769 | 8347 ft | 242 kts | 322° |
| 2026-05-05 20:57 | 53.07457 | -2.28483 | 7854 ft | 240 kts | 321° |
| 2026-05-05 20:57 | 53.08534 | -2.30549 | 7384 ft | 236 kts | 294° |
| 2026-05-05 20:57 | 53.08948 | -2.33140 | 6937 ft | 229 kts | 281° |
| 2026-05-05 20:58 | 53.09333 | -2.35690 | 6491 ft | 227 kts | 287° |
| 2026-05-05 20:58 | 53.09806 | -2.38178 | 6058 ft | 223 kts | 288° |
| 2026-05-05 20:58 | 53.10367 | -2.40533 | 5645 ft | 216 kts | 306° |
| 2026-05-05 20:58 | 53.11411 | -2.42246 | 5264 ft | 209 kts | 332° |
| 2026-05-05 20:59 | 53.12733 | -2.43156 | 4892 ft | 204 kts | 341° |
| 2026-05-05 20:59 | 53.14051 | -2.43973 | 4503 ft | 200 kts | 341° |
| 2026-05-05 20:59 | 53.15319 | -2.44766 | 4273 ft | 188 kts | 341° |
| 2026-05-05 20:59 | 53.16531 | -2.45524 | 4102 ft | 189 kts | 342° |
| 2026-05-05 21:00 | 53.17769 | -2.46295 | 3924 ft | 190 kts | 342° |
| 2026-05-05 21:00 | 53.19005 | -2.47066 | 3736 ft | 190 kts | 343° |
| 2026-05-05 21:00 | 53.20216 | -2.47823 | 3594 ft | 178 kts | 343° |
| 2026-05-05 21:00 | 53.21334 | -2.48490 | 3413 ft | 163 kts | 350° |
| 2026-05-05 21:01 | 53.22416 | -2.48765 | 3238 ft | 155 kts | 2° |
| 2026-05-05 21:01 | 53.23479 | -2.48653 | 3115 ft | 152 kts | 15° |
| 2026-05-05 21:01 | 53.24475 | -2.48191 | 3059 ft | 148 kts | 26° |
| 2026-05-05 21:01 | 53.25352 | -2.47440 | 3053 ft | 142 kts | 37° |
| 2026-05-05 21:02 | 53.26112 | -2.46401 | 3001 ft | 136 kts | 50° |
| 2026-05-05 21:02 | 53.26710 | -2.45261 | 2830 ft | 129 kts | 52° |
| 2026-05-05 21:02 | 53.27286 | -2.44119 | 2653 ft | 127 kts | 53° |
| 2026-05-05 21:02 | 53.27847 | -2.42987 | 2487 ft | 126 kts | 53° |
| 2026-05-05 21:03 | 53.28397 | -2.41868 | 2319 ft | 124 kts | 53° |
| 2026-05-05 21:03 | 53.28942 | -2.40754 | 2146 ft | 123 kts | 53° |
| 2026-05-05 21:03 | 53.29482 | -2.39645 | 1971 ft | 122 kts | 52° |
| 2026-05-05 21:03 | 53.30015 | -2.38551 | 1811 ft | 121 kts | 52° |
| 2026-05-05 21:04 | 53.30549 | -2.37453 | 1637 ft | 122 kts | 52° |
| 2026-05-05 21:04 | 53.31088 | -2.36342 | 1457 ft | 124 kts | 52° |
| 2026-05-05 21:04 | 53.31632 | -2.35222 | 1287 ft | 125 kts | 52° |
| 2026-05-05 21:04 | 53.31997 | -2.34470 | 1161 ft | 125 kts | 52° |
| 2026-05-05 21:05 | 53.32543 | -2.33344 | 971 ft | 126 kts | 52° |
| 2026-05-05 21:05 | 53.33095 | -2.32206 | 791 ft | 126 kts | 52° |
| 2026-05-05 21:05 | 53.33642 | -2.31080 | 612 ft | 123 kts | 51° |
| 2026-05-05 21:05 | 53.34188 | -2.29958 | 426 ft | 125 kts | 52° |
| 2026-05-05 21:06 | 53.34725 | -2.28829 | 255 ft | 124 kts | 51° |
| 2026-05-05 21:06 | 53.35242 | -2.27764 | 237 ft | 97 kts | 52° |
| 2026-05-05 21:06 | 53.35496 | -2.27232 | 242 ft | 32 kts | 51° |
| 2026-05-05 21:06 | 53.35600 | -2.27080 | 244 ft | 11 kts | 352° |
| 2026-05-05 21:07 | 53.35669 | -2.27147 | 244 ft | 0 kts | 322° |
| 2026-05-05 21:09 | 53.35692 | -2.27178 | 244 ft | 9 kts | 321° |
| 2026-05-05 21:09 | 53.35770 | -2.27142 | 245 ft | 16 kts | 49° |
| 2026-05-05 21:09 | 53.35835 | -2.26996 | 247 ft | 14 kts | 66° |
| 2026-05-05 21:09 | 53.35887 | -2.26866 | 249 ft | 10 kts | 51° |
| 2026-05-05 21:10 | 53.35940 | -2.26840 | 249 ft | 0 kts | 349° |
| 2026-05-05 21:10 | 53.35974 | -2.26851 | 249 ft | 5 kts | 336° |
| 2026-05-05 21:10 | 53.35999 | -2.26910 | 249 ft | 8 kts | 315° |
| 2026-05-05 21:11 | 53.36017 | -2.26940 | 249 ft | 0 kts | 313° |